createdAt,value
2017-04-24T00:00:03.974Z,3.22
2017-04-24T00:00:08.176Z,3.22
2017-04-24T00:00:12.604Z,3.2
2017-04-24T00:00:16.911Z,3.23
2017-04-24T00:00:21.332Z,3.2
2017-04-24T00:00:25.764Z,3.25
2017-04-24T00:00:30.086Z,3.13
2017-04-24T00:00:34.510Z,3.2
2017-04-24T00:00:38.945Z,3.22
2017-04-24T00:00:43.378Z,3.26
2017-04-24T00:00:47.800Z,3.2
2017-04-24T00:00:51.985Z,3.2
2017-04-24T00:00:56.416Z,3.17
2017-04-24T00:01:00.844Z,3.15
2017-04-24T00:01:05.151Z,3.26
2017-04-24T00:01:09.454Z,3.16
2017-04-24T00:01:13.643Z,3.13
2017-04-24T00:01:18.069Z,3.19
2017-04-24T00:01:22.374Z,3.23
2017-04-24T00:01:26.680Z,3.22
2017-04-24T00:01:31.132Z,3.2
2017-04-24T00:01:35.444Z,3.19
2017-04-24T00:01:39.747Z,3.26
2017-04-24T00:01:44.170Z,3.22
2017-04-24T00:01:48.615Z,3.17
2017-04-24T00:01:53.039Z,3.23
2017-04-24T00:01:57.464Z,3.25
2017-04-24T00:02:01.889Z,3.12
2017-04-24T00:02:06.323Z,3.23
2017-04-24T00:02:10.629Z,3.22
2017-04-24T00:02:14.941Z,3.17
2017-04-24T00:02:19.377Z,3.2
2017-04-24T00:02:23.821Z,3.15
2017-04-24T00:02:28.126Z,3.15
2017-04-24T00:02:32.546Z,3.15
2017-04-24T00:02:36.982Z,3.23
2017-04-24T00:02:41.413Z,3.17
2017-04-24T00:02:45.857Z,3.22
2017-04-24T00:02:50.173Z,3.25
2017-04-24T00:02:54.629Z,3.25
2017-04-24T00:02:59.064Z,3.16
2017-04-24T00:03:03.486Z,3.19
2017-04-24T00:03:07.671Z,3.23
2017-04-24T00:03:11.994Z,3.25
2017-04-24T00:03:16.444Z,3.2
2017-04-24T00:03:20.878Z,3.28
2017-04-24T00:03:25.302Z,3.2
2017-04-24T00:03:29.735Z,3.28
2017-04-24T00:03:34.165Z,3.22
2017-04-24T00:03:38.472Z,3.17
2017-04-24T00:03:42.909Z,3.16
2017-04-24T00:03:47.346Z,3.23
2017-04-24T00:03:51.774Z,3.2
2017-04-24T00:03:56.082Z,3.2
2017-04-24T00:04:00.512Z,3.2
2017-04-24T00:04:04.938Z,3.17
2017-04-24T00:04:09.366Z,3.17
2017-04-24T00:04:13.800Z,3.33
2017-04-24T00:04:18.118Z,3.22
2017-04-24T00:04:22.547Z,3.17
2017-04-24T00:04:26.986Z,3.23
2017-04-24T00:04:31.307Z,3.15
2017-04-24T00:04:35.761Z,3.13
2017-04-24T00:04:40.195Z,3.2
2017-04-24T00:04:44.386Z,3.2
2017-04-24T00:04:48.695Z,3.19
2017-04-24T00:04:53.003Z,3.16
2017-04-24T00:04:57.333Z,3.2
2017-04-24T00:05:01.757Z,3.22
2017-04-24T00:05:06.199Z,3.2
2017-04-24T00:05:10.504Z,3.2
2017-04-24T00:05:14.804Z,3.2
2017-04-24T00:05:19.235Z,3.23
2017-04-24T00:05:23.553Z,3.3
2017-04-24T00:05:27.979Z,3.2
2017-04-24T00:05:32.162Z,3.25
2017-04-24T00:05:36.584Z,3.2
2017-04-24T00:05:40.902Z,3.19
2017-04-24T00:05:45.344Z,3.23
2017-04-24T00:05:49.766Z,3.25
2017-04-24T00:05:54.079Z,3.2
2017-04-24T00:05:58.502Z,3.22
2017-04-24T00:06:03.222Z,3.31
2017-04-24T00:06:07.682Z,3.22
2017-04-24T00:06:11.878Z,3.33
2017-04-24T00:06:16.249Z,3.23
2017-04-24T00:06:20.432Z,3.2
2017-04-24T00:06:24.764Z,3.2
2017-04-24T00:06:29.211Z,3.22
2017-04-24T00:06:33.634Z,3.22
2017-04-24T00:06:38.059Z,3.2
2017-04-24T00:06:42.479Z,3.2
2017-04-24T00:06:46.908Z,3.22
2017-04-24T00:06:51.327Z,3.22
2017-04-24T00:06:55.635Z,3.2
2017-04-24T00:07:00.065Z,3.17
2017-04-24T00:07:04.492Z,3.23
2017-04-24T00:07:08.798Z,3.3
2017-04-24T00:07:13.225Z,3.19
2017-04-24T00:07:17.543Z,3.22
2017-04-24T00:07:21.743Z,3.19
2017-04-24T00:07:26.163Z,3.26
2017-04-24T00:07:30.469Z,3.23
2017-04-24T00:07:34.894Z,3.23
2017-04-24T00:07:39.324Z,3.22
2017-04-24T00:07:43.755Z,3.26
2017-04-24T00:07:48.202Z,3.19
2017-04-24T00:07:52.422Z,3.2
2017-04-24T00:07:56.617Z,3.23
2017-04-24T00:08:01.052Z,3.23
2017-04-24T00:08:05.476Z,3.23
2017-04-24T00:08:09.684Z,3.23
2017-04-24T00:08:13.998Z,3.23
2017-04-24T00:08:18.427Z,3.2
2017-04-24T00:08:22.865Z,3.23
2017-04-24T00:08:27.307Z,3.25
2017-04-24T00:08:31.638Z,3.2
2017-04-24T00:08:36.064Z,3.23
2017-04-24T00:08:40.516Z,3.2
2017-04-24T00:08:44.945Z,3.22
2017-04-24T00:08:49.367Z,3.19
2017-04-24T00:08:53.798Z,3.22
2017-04-24T00:08:57.996Z,3.2
2017-04-24T00:09:02.766Z,3.2
2017-04-24T00:09:07.201Z,3.22
2017-04-24T00:09:11.633Z,3.19
2017-04-24T00:09:16.063Z,3.23
2017-04-24T00:09:20.491Z,3.23
2017-04-24T00:09:24.685Z,3.2
2017-04-24T00:09:29.113Z,3.17
2017-04-24T00:09:33.418Z,3.19
2017-04-24T00:09:37.839Z,3.23
2017-04-24T00:09:42.265Z,3.22
2017-04-24T00:09:46.704Z,3.22
2017-04-24T00:09:51.135Z,3.3
2017-04-24T00:09:55.446Z,3.2
2017-04-24T00:09:59.882Z,3.22
2017-04-24T00:10:04.193Z,3.19
2017-04-24T00:10:08.505Z,3.22
2017-04-24T00:10:12.923Z,3.19
2017-04-24T00:10:17.231Z,3.23
2017-04-24T00:10:21.663Z,3.2
2017-04-24T00:10:25.970Z,3.33
2017-04-24T00:10:30.289Z,3.2
2017-04-24T00:10:34.744Z,3.23
2017-04-24T00:10:39.183Z,3.16
2017-04-24T00:10:43.617Z,3.19
2017-04-24T00:10:48.046Z,3.23
2017-04-24T00:10:52.479Z,3.22
2017-04-24T00:10:56.797Z,3.22
2017-04-24T00:11:01.099Z,3.19
2017-04-24T00:11:05.518Z,3.23
2017-04-24T00:11:09.959Z,3.22
2017-04-24T00:11:14.150Z,3.2
2017-04-24T00:11:18.571Z,3.2
2017-04-24T00:11:22.999Z,3.26
2017-04-24T00:11:27.427Z,3.23
2017-04-24T00:11:31.744Z,3.22
2017-04-24T00:11:36.168Z,3.25
2017-04-24T00:11:40.591Z,3.23
2017-04-24T00:11:45.028Z,3.34
2017-04-24T00:11:49.472Z,3.22
2017-04-24T00:11:53.897Z,3.26
2017-04-24T00:11:58.206Z,3.2
2017-04-24T00:12:02.632Z,3.22
2017-04-24T00:12:07.094Z,3.23
2017-04-24T00:12:11.408Z,3.2
2017-04-24T00:12:15.593Z,3.28
2017-04-24T00:12:20.026Z,3.25
2017-04-24T00:12:24.467Z,3.2
2017-04-24T00:12:28.887Z,3.2
2017-04-24T00:12:33.199Z,3.31
2017-04-24T00:12:37.624Z,3.22
2017-04-24T00:12:42.061Z,3.26
2017-04-24T00:12:46.487Z,3.2
2017-04-24T00:12:50.917Z,3.23
2017-04-24T00:12:55.352Z,3.2
2017-04-24T00:12:59.665Z,3.17
2017-04-24T00:13:04.019Z,3.2
2017-04-24T00:13:08.330Z,3.2
2017-04-24T00:13:12.650Z,3.23
2017-04-24T00:13:16.845Z,3.19
2017-04-24T00:13:21.036Z,3.22
2017-04-24T00:13:25.464Z,3.22
2017-04-24T00:13:29.896Z,3.17
2017-04-24T00:13:34.325Z,3.23
2017-04-24T00:13:38.761Z,3.19
2017-04-24T00:13:43.196Z,3.23
2017-04-24T00:13:47.647Z,3.22
2017-04-24T00:13:52.080Z,3.22
2017-04-24T00:13:56.510Z,3.22
2017-04-24T00:14:00.704Z,3.2
2017-04-24T00:14:05.283Z,3.22
2017-04-24T00:14:09.485Z,3.17
2017-04-24T00:14:13.794Z,3.2
2017-04-24T00:14:18.106Z,3.2
2017-04-24T00:14:22.544Z,3.25
2017-04-24T00:14:26.970Z,3.12
2017-04-24T00:14:31.398Z,3.2
2017-04-24T00:14:35.822Z,3.16
2017-04-24T00:14:40.267Z,3.19
2017-04-24T00:14:44.692Z,3.23
2017-04-24T00:14:49.119Z,3.19
2017-04-24T00:14:53.318Z,3.17
2017-04-24T00:14:57.754Z,3.2
2017-04-24T00:15:02.265Z,3.26
2017-04-24T00:15:06.694Z,3.17
2017-04-24T00:15:11.118Z,3.23
2017-04-24T00:15:15.452Z,3.12
2017-04-24T00:15:19.876Z,3.1
2017-04-24T00:15:24.309Z,3.2
2017-04-24T00:15:28.772Z,3.19
2017-04-24T00:15:33.080Z,3.1
2017-04-24T00:15:37.395Z,3.16
2017-04-24T00:15:41.827Z,3.17
2017-04-24T00:15:46.254Z,3.17
2017-04-24T00:15:50.681Z,3.15
2017-04-24T00:15:55.102Z,3.12
2017-04-24T00:15:59.541Z,3.08
2017-04-24T00:16:04.034Z,3.19
2017-04-24T00:16:08.341Z,3.19
2017-04-24T00:16:12.762Z,3.16
2017-04-24T00:16:16.954Z,3.15
2017-04-24T00:16:21.387Z,3.23
2017-04-24T00:16:25.810Z,3.13
2017-04-24T00:16:30.113Z,3.15
2017-04-24T00:16:34.415Z,3.22
2017-04-24T00:16:38.857Z,3.19
2017-04-24T00:16:43.278Z,3.13
2017-04-24T00:16:47.726Z,3.22
2017-04-24T00:16:52.150Z,3.17
2017-04-24T00:16:56.573Z,3.22
2017-04-24T00:17:00.993Z,3.2
2017-04-24T00:17:05.551Z,3.1
2017-04-24T00:17:09.747Z,3.12
2017-04-24T00:17:14.179Z,3.19
2017-04-24T00:17:18.608Z,3.13
2017-04-24T00:17:23.038Z,3.17
2017-04-24T00:17:27.465Z,3.1
2017-04-24T00:17:31.900Z,3.12
2017-04-24T00:17:36.209Z,3.16
2017-04-24T00:17:40.645Z,3.08
2017-04-24T00:17:45.076Z,3.12
2017-04-24T00:17:49.504Z,3.07
2017-04-24T00:17:53.710Z,3.12
2017-04-24T00:17:58.137Z,3.13
2017-04-24T00:18:02.923Z,3.13
2017-04-24T00:18:07.370Z,3.13
2017-04-24T00:18:11.688Z,3.15
2017-04-24T00:18:16.001Z,3.05
2017-04-24T00:18:20.427Z,3.08
2017-04-24T00:18:24.864Z,3.07
2017-04-24T00:18:29.196Z,3.13
2017-04-24T00:18:33.500Z,3.07
2017-04-24T00:18:37.931Z,3.1
2017-04-24T00:18:42.363Z,3.12
2017-04-24T00:18:46.792Z,3.02
2017-04-24T00:18:51.241Z,3.08
2017-04-24T00:18:55.676Z,3.01
2017-04-24T00:19:00.109Z,2.98
2017-04-24T00:19:04.832Z,3.05
2017-04-24T00:19:09.135Z,3.05
2017-04-24T00:19:13.578Z,3.07
2017-04-24T00:19:17.915Z,3.05
2017-04-24T00:19:22.342Z,3.12
2017-04-24T00:19:26.772Z,3.07
2017-04-24T00:19:31.092Z,3.05
2017-04-24T00:19:35.279Z,2.97
2017-04-24T00:19:39.703Z,3.04
2017-04-24T00:19:44.120Z,3.07
2017-04-24T00:19:48.590Z,3.02
2017-04-24T00:19:53.017Z,3.05
2017-04-24T00:19:57.443Z,3.04
2017-04-24T00:20:01.878Z,2.97
2017-04-24T00:20:06.193Z,3.07
2017-04-24T00:20:10.502Z,2.94
2017-04-24T00:20:14.689Z,2.97
2017-04-24T00:20:19.112Z,3.02
2017-04-24T00:20:23.422Z,3.05
2017-04-24T00:20:27.872Z,3.01
2017-04-24T00:20:32.297Z,3.02
2017-04-24T00:20:36.719Z,2.89
2017-04-24T00:20:41.157Z,2.99
2017-04-24T00:20:45.579Z,3.01
2017-04-24T00:20:50.013Z,2.97
2017-04-24T00:20:54.434Z,2.98
2017-04-24T00:20:58.778Z,2.98
2017-04-24T00:21:03.499Z,2.94
2017-04-24T00:21:07.919Z,2.98
2017-04-24T00:21:12.233Z,2.97
2017-04-24T00:21:16.551Z,2.95
2017-04-24T00:21:20.973Z,2.97
2017-04-24T00:21:25.388Z,2.99
2017-04-24T00:21:29.708Z,2.98
2017-04-24T00:21:34.132Z,2.97
2017-04-24T00:21:38.558Z,2.95
2017-04-24T00:21:42.976Z,2.98
2017-04-24T00:21:47.395Z,3.04
2017-04-24T00:21:51.828Z,2.98
2017-04-24T00:21:56.253Z,2.95
2017-04-24T00:22:00.566Z,2.98
2017-04-24T00:22:04.754Z,2.95
2017-04-24T00:22:09.073Z,2.97
2017-04-24T00:22:13.495Z,3.01
2017-04-24T00:22:17.919Z,2.97
2017-04-24T00:22:22.342Z,2.99
2017-04-24T00:22:26.779Z,2.94
2017-04-24T00:22:31.219Z,2.95
2017-04-24T00:22:35.640Z,3.01
2017-04-24T00:22:40.089Z,2.92
2017-04-24T00:22:44.523Z,2.98
2017-04-24T00:22:48.705Z,2.95
2017-04-24T00:22:53.129Z,2.95
2017-04-24T00:22:57.449Z,3.01
2017-04-24T00:23:01.884Z,2.97
2017-04-24T00:23:06.195Z,2.92
2017-04-24T00:23:10.533Z,2.99
2017-04-24T00:23:14.966Z,2.97
2017-04-24T00:23:19.278Z,2.98
2017-04-24T00:23:23.712Z,2.95
2017-04-24T00:23:28.146Z,2.95
2017-04-24T00:23:32.469Z,2.95
2017-04-24T00:23:36.774Z,2.99
2017-04-24T00:23:41.201Z,2.95
2017-04-24T00:23:45.636Z,2.89
2017-04-24T00:23:49.959Z,2.94
2017-04-24T00:23:54.407Z,2.89
2017-04-24T00:23:58.842Z,2.89
2017-04-24T00:24:03.263Z,2.95
2017-04-24T00:24:07.690Z,2.94
2017-04-24T00:24:11.996Z,2.92
2017-04-24T00:24:16.306Z,2.98
2017-04-24T00:24:20.735Z,2.87
2017-04-24T00:24:25.167Z,2.89
2017-04-24T00:24:29.477Z,2.98
2017-04-24T00:24:33.784Z,2.98
2017-04-24T00:24:38.208Z,2.94
2017-04-24T00:24:42.518Z,2.97
2017-04-24T00:24:46.959Z,2.9
2017-04-24T00:24:51.387Z,2.95
2017-04-24T00:24:55.810Z,2.95
2017-04-24T00:25:00.237Z,2.99
2017-04-24T00:25:04.846Z,2.9
2017-04-24T00:25:09.148Z,2.92
2017-04-24T00:25:13.331Z,2.9
2017-04-24T00:25:17.767Z,2.94
2017-04-24T00:25:22.205Z,3.01
2017-04-24T00:25:26.630Z,2.94
2017-04-24T00:25:31.055Z,2.97
2017-04-24T00:25:35.481Z,2.97
2017-04-24T00:25:39.939Z,2.99
2017-04-24T00:25:44.371Z,2.97
2017-04-24T00:25:48.798Z,2.92
2017-04-24T00:25:53.245Z,2.98
2017-04-24T00:25:57.679Z,2.95
2017-04-24T00:26:02.106Z,2.95
2017-04-24T00:26:06.414Z,3.02
2017-04-24T00:26:10.850Z,2.99
2017-04-24T00:26:15.162Z,2.97
2017-04-24T00:26:19.591Z,2.95
2017-04-24T00:26:24.010Z,2.94
2017-04-24T00:26:28.431Z,2.9
2017-04-24T00:26:32.871Z,2.97
2017-04-24T00:26:37.296Z,2.98
2017-04-24T00:26:41.598Z,2.92
2017-04-24T00:26:46.039Z,2.98
2017-04-24T00:26:50.474Z,2.95
2017-04-24T00:26:54.898Z,2.99
2017-04-24T00:26:59.325Z,2.92
2017-04-24T00:27:03.846Z,3.04
2017-04-24T00:27:08.153Z,2.99
2017-04-24T00:27:12.454Z,2.92
2017-04-24T00:27:16.763Z,2.95
2017-04-24T00:27:21.196Z,2.94
2017-04-24T00:27:25.622Z,2.9
2017-04-24T00:27:29.933Z,2.98
2017-04-24T00:27:34.247Z,2.98
2017-04-24T00:27:38.685Z,2.97
2017-04-24T00:27:43.114Z,3.02
2017-04-24T00:27:47.547Z,3.01
2017-04-24T00:27:51.981Z,3.01
2017-04-24T00:27:56.418Z,3.01
2017-04-24T00:28:00.728Z,2.94
2017-04-24T00:28:05.187Z,2.94
2017-04-24T00:28:09.610Z,2.99
2017-04-24T00:28:13.855Z,2.98
2017-04-24T00:28:18.279Z,2.95
2017-04-24T00:28:22.704Z,2.94
2017-04-24T00:28:27.131Z,2.98
2017-04-24T00:28:31.451Z,2.95
2017-04-24T00:28:35.882Z,2.97
2017-04-24T00:28:40.335Z,2.95
2017-04-24T00:28:44.758Z,2.9
2017-04-24T00:28:49.190Z,2.95
2017-04-24T00:28:53.618Z,2.97
2017-04-24T00:28:58.062Z,2.98
2017-04-24T00:29:02.486Z,2.95
2017-04-24T00:29:06.925Z,3.04
2017-04-24T00:29:11.117Z,2.94
2017-04-24T00:29:15.428Z,2.98
2017-04-24T00:29:19.877Z,2.97
2017-04-24T00:29:24.313Z,2.94
2017-04-24T00:29:28.623Z,2.98
2017-04-24T00:29:32.811Z,3.02
2017-04-24T00:29:37.232Z,2.97
2017-04-24T00:29:41.656Z,3.02
2017-04-24T00:29:46.080Z,2.98
2017-04-24T00:29:50.503Z,2.95
2017-04-24T00:29:54.821Z,2.95
2017-04-24T00:29:59.249Z,2.99
2017-04-24T00:30:03.905Z,3.04
2017-04-24T00:30:08.325Z,2.94
2017-04-24T00:30:12.532Z,2.95
2017-04-24T00:30:16.846Z,2.97
2017-04-24T00:30:21.275Z,3.07
2017-04-24T00:30:25.700Z,2.98
2017-04-24T00:30:29.770Z,2.97
2017-04-24T00:30:34.192Z,3.02
2017-04-24T00:30:38.614Z,2.92
2017-04-24T00:30:43.057Z,2.94
2017-04-24T00:30:47.480Z,2.95
2017-04-24T00:30:51.909Z,2.95
2017-04-24T00:30:56.218Z,3.01
2017-04-24T00:31:00.671Z,2.98
2017-04-24T00:31:05.097Z,2.99
2017-04-24T00:31:09.406Z,2.98
2017-04-24T00:31:13.833Z,2.94
2017-04-24T00:31:17.924Z,2.95
2017-04-24T00:31:22.360Z,2.95
2017-04-24T00:31:26.663Z,2.95
2017-04-24T00:31:31.095Z,2.98
2017-04-24T00:31:35.519Z,2.95
2017-04-24T00:31:39.945Z,2.94
2017-04-24T00:31:44.366Z,2.92
2017-04-24T00:31:48.798Z,2.92
2017-04-24T00:31:53.241Z,2.97
2017-04-24T00:31:57.663Z,2.99
2017-04-24T00:32:02.183Z,2.97
2017-04-24T00:32:06.373Z,2.97
2017-04-24T00:32:10.801Z,2.98
2017-04-24T00:32:15.118Z,3.04
2017-04-24T00:32:19.546Z,2.98
2017-04-24T00:32:23.967Z,2.97
2017-04-24T00:32:28.283Z,3.01
2017-04-24T00:32:32.708Z,3.01
2017-04-24T00:32:37.018Z,2.9
2017-04-24T00:32:41.481Z,3.04
2017-04-24T00:32:45.911Z,2.99
2017-04-24T00:32:50.336Z,3.04
2017-04-24T00:32:54.790Z,2.92
2017-04-24T00:32:59.228Z,2.97
2017-04-24T00:33:03.759Z,2.98
2017-04-24T00:33:08.182Z,2.95
2017-04-24T00:33:12.497Z,2.92
2017-04-24T00:33:16.700Z,2.94
2017-04-24T00:33:21.128Z,2.92
2017-04-24T00:33:25.552Z,3.04
2017-04-24T00:33:29.987Z,2.98
2017-04-24T00:33:34.413Z,2.94
2017-04-24T00:33:38.839Z,3.01
2017-04-24T00:33:43.277Z,2.99
2017-04-24T00:33:47.721Z,2.9
2017-04-24T00:33:52.147Z,2.86
2017-04-24T00:33:56.581Z,2.94
2017-04-24T00:34:01.007Z,2.98
2017-04-24T00:34:05.325Z,2.92
2017-04-24T00:34:09.400Z,2.92
2017-04-24T00:34:13.586Z,2.89
2017-04-24T00:34:17.907Z,2.98
2017-04-24T00:34:22.332Z,2.9
2017-04-24T00:34:26.770Z,2.87
2017-04-24T00:34:31.080Z,2.95
2017-04-24T00:34:35.513Z,2.94
2017-04-24T00:34:39.945Z,2.87
2017-04-24T00:34:44.373Z,2.87
2017-04-24T00:34:48.801Z,2.89
2017-04-24T00:34:53.232Z,2.89
2017-04-24T00:34:57.668Z,2.97
2017-04-24T00:35:02.124Z,2.94
2017-04-24T00:35:06.205Z,2.83
2017-04-24T00:35:10.529Z,2.86
2017-04-24T00:35:14.597Z,2.97
2017-04-24T00:35:18.902Z,2.9
2017-04-24T00:35:23.326Z,2.89
2017-04-24T00:35:27.760Z,2.84
2017-04-24T00:35:32.182Z,2.9
2017-04-24T00:35:36.601Z,2.84
2017-04-24T00:35:41.018Z,2.83
2017-04-24T00:35:45.347Z,2.97
2017-04-24T00:35:49.789Z,2.95
2017-04-24T00:35:54.208Z,2.87
2017-04-24T00:35:58.642Z,2.83
2017-04-24T00:36:03.010Z,2.83
2017-04-24T00:36:07.317Z,2.87
2017-04-24T00:36:11.499Z,2.86
2017-04-24T00:36:15.805Z,2.87
2017-04-24T00:36:20.128Z,2.86
2017-04-24T00:36:24.545Z,2.83
2017-04-24T00:36:28.971Z,2.9
2017-04-24T00:36:33.287Z,2.89
2017-04-24T00:36:37.738Z,2.89
2017-04-24T00:36:42.160Z,2.84
2017-04-24T00:36:46.583Z,2.83
2017-04-24T00:36:51.004Z,2.87
2017-04-24T00:36:55.434Z,2.84
2017-04-24T00:36:59.743Z,2.89
2017-04-24T00:37:04.183Z,2.81
2017-04-24T00:37:08.495Z,2.86
2017-04-24T00:37:12.584Z,2.87
2017-04-24T00:37:16.896Z,2.79
2017-04-24T00:37:21.203Z,2.86
2017-04-24T00:37:25.634Z,2.8
2017-04-24T00:37:30.063Z,2.92
2017-04-24T00:37:34.484Z,2.77
2017-04-24T00:37:38.802Z,2.81
2017-04-24T00:37:43.225Z,2.83
2017-04-24T00:37:47.660Z,2.87
2017-04-24T00:37:51.986Z,2.79
2017-04-24T00:37:56.175Z,2.83
2017-04-24T00:38:00.602Z,2.94
2017-04-24T00:38:05.033Z,2.89
2017-04-24T00:38:09.343Z,2.94
2017-04-24T00:38:13.657Z,2.87
2017-04-24T00:38:18.089Z,2.84
2017-04-24T00:38:22.405Z,2.89
2017-04-24T00:38:26.842Z,2.87
2017-04-24T00:38:31.279Z,2.94
2017-04-24T00:38:35.696Z,2.83
2017-04-24T00:38:40.133Z,2.92
2017-04-24T00:38:44.558Z,2.83
2017-04-24T00:38:48.986Z,2.87
2017-04-24T00:38:53.289Z,2.81
2017-04-24T00:38:57.605Z,2.84
2017-04-24T00:39:02.029Z,2.81
2017-04-24T00:39:06.452Z,2.84
2017-04-24T00:39:10.878Z,2.81
2017-04-24T00:39:15.193Z,2.89
2017-04-24T00:39:19.514Z,2.86
2017-04-24T00:39:23.945Z,2.84
2017-04-24T00:39:28.378Z,2.84
2017-04-24T00:39:32.688Z,2.81
2017-04-24T00:39:37.137Z,2.86
2017-04-24T00:39:41.561Z,2.79
2017-04-24T00:39:45.984Z,2.81
2017-04-24T00:39:50.178Z,2.89
2017-04-24T00:39:54.617Z,2.81
2017-04-24T00:39:59.046Z,2.84
2017-04-24T00:40:03.668Z,2.84
2017-04-24T00:40:07.632Z,2.87
2017-04-24T00:40:11.947Z,2.83
2017-04-24T00:40:16.137Z,2.87
2017-04-24T00:40:20.339Z,2.79
2017-04-24T00:40:24.791Z,2.8
2017-04-24T00:40:29.214Z,2.81
2017-04-24T00:40:33.521Z,2.84
2017-04-24T00:40:37.939Z,2.8
2017-04-24T00:40:42.373Z,2.84
2017-04-24T00:40:46.808Z,2.8
2017-04-24T00:40:51.112Z,2.86
2017-04-24T00:40:55.533Z,2.76
2017-04-24T00:40:59.958Z,2.8
2017-04-24T00:41:04.383Z,2.81
2017-04-24T00:41:08.809Z,2.81
2017-04-24T00:41:13.115Z,2.8
2017-04-24T00:41:17.579Z,2.8
2017-04-24T00:41:22.002Z,2.81
2017-04-24T00:41:26.307Z,2.81
2017-04-24T00:41:30.737Z,2.86
2017-04-24T00:41:35.165Z,2.86
2017-04-24T00:41:39.480Z,2.81
2017-04-24T00:41:43.671Z,2.79
2017-04-24T00:41:48.095Z,2.8
2017-04-24T00:41:52.403Z,2.84
2017-04-24T00:41:56.829Z,2.87
2017-04-24T00:42:01.252Z,2.84
2017-04-24T00:42:05.930Z,2.84
2017-04-24T00:42:10.238Z,2.8
2017-04-24T00:42:14.544Z,2.8
2017-04-24T00:42:18.967Z,2.79
2017-04-24T00:42:23.399Z,2.83
2017-04-24T00:42:27.825Z,2.8
2017-04-24T00:42:32.017Z,2.81
2017-04-24T00:42:36.457Z,2.84
2017-04-24T00:42:40.914Z,2.83
2017-04-24T00:42:45.344Z,2.79
2017-04-24T00:42:49.765Z,2.81
2017-04-24T00:42:54.200Z,2.81
2017-04-24T00:42:58.680Z,2.81
2017-04-24T00:43:03.117Z,2.87
2017-04-24T00:43:07.543Z,2.81
2017-04-24T00:43:11.862Z,2.83
2017-04-24T00:43:16.188Z,2.83
2017-04-24T00:43:20.613Z,2.79
2017-04-24T00:43:25.044Z,2.83
2017-04-24T00:43:29.357Z,2.76
2017-04-24T00:43:33.672Z,2.83
2017-04-24T00:43:37.985Z,2.83
2017-04-24T00:43:42.411Z,2.76
2017-04-24T00:43:46.838Z,2.81
2017-04-24T00:43:51.275Z,2.81
2017-04-24T00:43:55.705Z,2.83
2017-04-24T00:44:00.135Z,2.84
2017-04-24T00:44:04.866Z,2.83
2017-04-24T00:44:09.182Z,2.79
2017-04-24T00:44:13.486Z,2.86
2017-04-24T00:44:17.808Z,2.79
2017-04-24T00:44:22.239Z,2.81
2017-04-24T00:44:26.673Z,2.84
2017-04-24T00:44:31.103Z,2.8
2017-04-24T00:44:35.535Z,2.81
2017-04-24T00:44:39.977Z,2.81
2017-04-24T00:44:44.306Z,2.79
2017-04-24T00:44:48.730Z,2.81
2017-04-24T00:44:53.153Z,2.81
2017-04-24T00:44:57.586Z,2.81
2017-04-24T00:45:02.047Z,2.79
2017-04-24T00:45:06.475Z,2.79
2017-04-24T00:45:10.784Z,2.87
2017-04-24T00:45:14.860Z,2.84
2017-04-24T00:45:19.284Z,2.8
2017-04-24T00:45:23.705Z,2.81
2017-04-24T00:45:28.139Z,2.81
2017-04-24T00:45:32.563Z,2.84
2017-04-24T00:45:36.870Z,2.89
2017-04-24T00:45:41.301Z,2.86
2017-04-24T00:45:45.618Z,2.81
2017-04-24T00:45:50.039Z,2.81
2017-04-24T00:45:54.464Z,2.87
2017-04-24T00:45:58.892Z,2.86
2017-04-24T00:46:03.420Z,2.79
2017-04-24T00:46:07.858Z,2.81
2017-04-24T00:46:12.163Z,2.87
2017-04-24T00:46:16.467Z,2.79
2017-04-24T00:46:20.895Z,2.81
2017-04-24T00:46:25.315Z,2.89
2017-04-24T00:46:29.734Z,2.8
2017-04-24T00:46:34.033Z,2.84
2017-04-24T00:46:38.456Z,2.89
2017-04-24T00:46:42.888Z,2.81
2017-04-24T00:46:47.313Z,2.86
2017-04-24T00:46:51.741Z,2.9
2017-04-24T00:46:56.087Z,2.86
2017-04-24T00:47:00.511Z,2.89
2017-04-24T00:47:04.936Z,2.9
2017-04-24T00:47:09.260Z,2.94
2017-04-24T00:47:13.697Z,2.86
2017-04-24T00:47:18.120Z,2.81
2017-04-24T00:47:22.428Z,2.92
2017-04-24T00:47:26.626Z,2.81
2017-04-24T00:47:31.055Z,2.8
2017-04-24T00:47:35.481Z,2.94
2017-04-24T00:47:39.916Z,2.94
2017-04-24T00:47:44.350Z,2.84
2017-04-24T00:47:48.797Z,2.86
2017-04-24T00:47:53.224Z,2.86
2017-04-24T00:47:57.653Z,2.83
2017-04-24T00:48:02.091Z,2.8
2017-04-24T00:48:06.433Z,2.84
2017-04-24T00:48:10.626Z,2.94
2017-04-24T00:48:14.938Z,2.86
2017-04-24T00:48:19.381Z,2.83
2017-04-24T00:48:23.817Z,2.87
2017-04-24T00:48:28.032Z,2.84
2017-04-24T00:48:32.464Z,2.83
2017-04-24T00:48:36.901Z,2.94
2017-04-24T00:48:41.333Z,2.89
2017-04-24T00:48:45.769Z,2.84
2017-04-24T00:48:50.202Z,2.92
2017-04-24T00:48:54.635Z,2.84
2017-04-24T00:48:59.063Z,2.86
2017-04-24T00:49:03.491Z,2.89
2017-04-24T00:49:07.926Z,2.95
2017-04-24T00:49:12.238Z,2.86
2017-04-24T00:49:16.543Z,2.87
2017-04-24T00:49:20.636Z,2.86
2017-04-24T00:49:24.955Z,2.92
2017-04-24T00:49:29.394Z,2.95
2017-04-24T00:49:33.816Z,2.97
2017-04-24T00:49:38.242Z,2.89
2017-04-24T00:49:42.687Z,2.86
2017-04-24T00:49:47.120Z,2.84
2017-04-24T00:49:51.540Z,2.89
2017-04-24T00:49:55.847Z,2.86
2017-04-24T00:50:00.289Z,2.87
2017-04-24T00:50:04.709Z,2.89
2017-04-24T00:50:09.018Z,2.87
2017-04-24T00:50:13.327Z,2.94
2017-04-24T00:50:17.769Z,2.87
2017-04-24T00:50:22.072Z,2.87
2017-04-24T00:50:26.494Z,2.95
2017-04-24T00:50:30.933Z,2.84
2017-04-24T00:50:35.266Z,2.89
2017-04-24T00:50:39.574Z,2.86
2017-04-24T00:50:43.880Z,2.9
2017-04-24T00:50:48.301Z,2.89
2017-04-24T00:50:52.746Z,2.87
2017-04-24T00:50:57.178Z,2.89
2017-04-24T00:51:01.607Z,2.89
2017-04-24T00:51:06.035Z,2.94
2017-04-24T00:51:10.466Z,2.97
2017-04-24T00:51:14.540Z,2.9
2017-04-24T00:51:18.842Z,2.86
2017-04-24T00:51:23.273Z,2.83
2017-04-24T00:51:27.601Z,2.86
2017-04-24T00:51:31.787Z,2.86
2017-04-24T00:51:36.208Z,2.86
2017-04-24T00:51:40.637Z,2.89
2017-04-24T00:51:45.064Z,2.89
2017-04-24T00:51:49.489Z,2.9
2017-04-24T00:51:53.914Z,2.84
2017-04-24T00:51:58.338Z,2.89
2017-04-24T00:52:02.785Z,2.86
2017-04-24T00:52:06.888Z,2.86
2017-04-24T00:52:11.200Z,2.87
2017-04-24T00:52:15.275Z,2.86
2017-04-24T00:52:19.593Z,2.86
2017-04-24T00:52:24.015Z,2.84
2017-04-24T00:52:28.459Z,2.83
2017-04-24T00:52:32.774Z,2.95
2017-04-24T00:52:37.215Z,2.89
2017-04-24T00:52:41.640Z,2.84
2017-04-24T00:52:46.074Z,2.9
2017-04-24T00:52:50.502Z,2.87
2017-04-24T00:52:54.930Z,2.9
2017-04-24T00:52:59.385Z,2.84
2017-04-24T00:53:04.057Z,2.86
2017-04-24T00:53:08.364Z,2.95
2017-04-24T00:53:12.562Z,2.98
2017-04-24T00:53:17.002Z,2.83
2017-04-24T00:53:21.436Z,2.86
2017-04-24T00:53:25.865Z,2.94
2017-04-24T00:53:30.309Z,2.86
2017-04-24T00:53:34.614Z,2.84
2017-04-24T00:53:38.932Z,2.86
2017-04-24T00:53:43.363Z,2.9
2017-04-24T00:53:47.683Z,2.98
2017-04-24T00:53:52.117Z,2.94
2017-04-24T00:53:56.546Z,2.98
2017-04-24T00:54:00.982Z,2.89
2017-04-24T00:54:05.438Z,2.95
2017-04-24T00:54:09.750Z,2.86
2017-04-24T00:54:13.828Z,2.83
2017-04-24T00:54:18.291Z,2.87
2017-04-24T00:54:22.723Z,2.86
2017-04-24T00:54:27.163Z,2.94
2017-04-24T00:54:31.478Z,2.89
2017-04-24T00:54:35.792Z,2.94
2017-04-24T00:54:40.216Z,2.84
2017-04-24T00:54:44.636Z,2.89
2017-04-24T00:54:49.053Z,2.92
2017-04-24T00:54:53.483Z,2.87
2017-04-24T00:54:57.918Z,2.84
2017-04-24T00:55:02.260Z,2.9
2017-04-24T00:55:06.687Z,2.9
2017-04-24T00:55:11.006Z,2.92
2017-04-24T00:55:15.321Z,2.87
2017-04-24T00:55:19.747Z,2.83
2017-04-24T00:55:24.176Z,2.86
2017-04-24T00:55:28.609Z,2.84
2017-04-24T00:55:32.923Z,2.95
2017-04-24T00:55:37.347Z,2.9
2017-04-24T00:55:41.775Z,2.81
2017-04-24T00:55:46.204Z,2.83
2017-04-24T00:55:50.625Z,2.84
2017-04-24T00:55:55.050Z,2.87
2017-04-24T00:55:59.352Z,2.92
2017-04-24T00:56:04.031Z,2.95
2017-04-24T00:56:08.223Z,2.92
2017-04-24T00:56:12.642Z,2.9
2017-04-24T00:56:17.073Z,2.9
2017-04-24T00:56:21.499Z,2.84
2017-04-24T00:56:25.802Z,2.84
2017-04-24T00:56:30.231Z,2.89
2017-04-24T00:56:34.426Z,2.92
2017-04-24T00:56:38.870Z,2.94
2017-04-24T00:56:43.290Z,2.86
2017-04-24T00:56:47.717Z,2.9
2017-04-24T00:56:52.144Z,2.87
2017-04-24T00:56:56.445Z,2.84
2017-04-24T00:57:00.870Z,2.89
2017-04-24T00:57:05.296Z,2.84
2017-04-24T00:57:09.603Z,2.87
2017-04-24T00:57:13.913Z,2.86
2017-04-24T00:57:18.350Z,2.89
2017-04-24T00:57:22.779Z,2.89
2017-04-24T00:57:27.207Z,2.87
2017-04-24T00:57:31.629Z,2.86
2017-04-24T00:57:36.051Z,2.89
2017-04-24T00:57:40.485Z,2.98
2017-04-24T00:57:44.927Z,2.9
2017-04-24T00:57:49.352Z,2.97
2017-04-24T00:57:53.544Z,2.89
2017-04-24T00:57:57.987Z,2.87
2017-04-24T00:58:02.616Z,2.87
2017-04-24T00:58:06.926Z,2.89
2017-04-24T00:58:11.353Z,2.86
2017-04-24T00:58:15.797Z,2.98
2017-04-24T00:58:20.243Z,2.97
2017-04-24T00:58:24.674Z,2.9
2017-04-24T00:58:28.986Z,2.94
2017-04-24T00:58:33.417Z,2.89
2017-04-24T00:58:37.740Z,2.89